Oulan-Bator, Mongolie

10:58 ULAT le 30 juillet 2014 (GMT +0800)
Buyant-Ukhaa (ZMUB) Alt. 4364 ft | 47.83 °N, 106.78 °E | Change Station

Current weather conditions updated -96 second ago

Scattered Clouds
Nuages épars
75 ° F
Paraît 75 ° F
N
9
Vent Variable Vent de SSE

Aujourd’hui il est prévu de faire plus chaud qu’hier.

Aujourd'hui
Haut(e) -- | Bas -- ° F
--% Risque de précip.
Hier
Haut(e) -- | Bas -- ° F
Precip. -- pouce
5:26 AM 8:31 PM
Lune montante, 9% visible
Pression 29.59 pouce
Visibilité 6.2 Miles terrestres
Nuages Peu 3000 ft
Peu 3300 ft
Nuages épars 10000 ft
Point de rosée 48 ° F
Humidité 38%
Précipitations 0.00 pouce
Profondeur de la couche neigeuse Non disponible.
UV 5 sur 12
Pollen Non disponible.
Qualité de l'air Non disponible.
Flu Activity Non disponible.
METAR ZMUB 300300Z 16004MPS 130V200 9999 FEW030CB FEW033 SCT100 24/09 Q1002 NOSIG RMK QFE646.1 38 MOP

More Conditions Fewer Conditions

Pression 29.59 pouce
Visibilité 6.2 Miles terrestres
Nuages Peu 3000 ft
Peu 3300 ft
Nuages épars 10000 ft
Point de rosée 48 ° F
Humidité 38%
Précipitations 0.00 pouce
Profondeur de la couche neigeuse Non disponible.
UV 5 sur 12
Pollen Non disponible.
Qualité de l'air Non disponible.
Flu Activity Non disponible.
METAR ZMUB 300300Z 16004MPS 130V200 9999 FEW030CB FEW033 SCT100 24/09 Q1002 NOSIG RMK QFE646.1 38 MOP

More Conditions Fewer Conditions

10-Day Weather Forecast

Almanac

Astronomie

Jul. 30, 2014 Lever Coucher
Temps réel 05:26 ULAT 20:31 ULAT
Crépuscule civil 04:49 ULAT 21:08 ULAT
Crépuscule nautique 04:02 ULAT 21:55 ULAT
Crépuscule astronomique 03:03 ULAT 22:53 ULAT
Lune 08:45 ULAT 21:38 ULAT
Durée de lumière visible 16h 18m
Longueur du jour
15h 05m
Tomorrow will be 2m 37s shorter.
Lune montante, 9% of the Moon is Illuminated
juil 29
Lune montante
août 3
Premier quartier
août 10
Pleine lune
août 17
Dernier quartier
août 25
Nouveau

Les extrêmes de température d’hier

Country Highs Country Lows

Community

WunderPhotos

Upload Photos

1,738,977 Photos téléchargées !

Nearby

Qualité de l'air

Not available.

Épaisseur de neige

Not available.

Activité sismique

Ville Distance Mag. Time & Date
No recent earthquake activity has been reported nearby.
Minimum magnitude displayed is 2.5.

Températures des eaux côtières

Lieu Température
Aucun rapport de station

Stations météo à proximité

Il n'y a aucune station météorologique personnelle dans cette zone.